Liberty, MO (64068)

4:52 AM CDT on March 23, 2017 (GMT -0500)
Liberty City Hall | | Change Station

Elev 912 ft 39.25 °N, 94.42 °W | Updated 58 minutes ago

Overcast
Overcast
51.0 °F
Feels Like 51.0 °F
N
6.0
Wind Variable Wind from SE
Gusts 12.0 mph

Today
High -- | Low -- °F
--% Chance of Precip.
Yesterday
High -- | Low -- °F
Precip. -- in
Pressure 30.11 in
Visibility 10.0 miles
Clouds Overcast 3000 ft
Dew Point 29 °F
Humidity 42%
Rainfall 0.00 in
Snow Depth Not available.
7:15 AM 7:32 PM
Waning Crescent, 24% visible
METAR KGPH 230955Z AUTO 13007KT 10SM OVC030 10/M03 A3011 RMK AO2
Pressure 30.11 in
Visibility 10.0 miles
Clouds Overcast 3000 ft
Dew Point 29 °F
Humidity 42%
Rainfall 0.00 in
Snow Depth Not available.
7:15 AM 7:32 PM
Waning Crescent, 24% visible
METAR KGPH 230955Z AUTO 13007KT 10SM OVC030 10/M03 A3011 RMK AO2

Get Severe Weather Alerts

Thanks for signing up!

Be on the lookout for a verification email in your inbox.

You'll start receiving the daily forecast at 8 AM.

×

10-Day Weather Forecast

Almanac

Astronomy

Mar. 23, 2017 Rise Set
Actual Time
Civil Twilight
Nautical Twilight
Astronomical Twilight
Moon
Length of Visible Light
Length of Day
Tomorrow will be .
, % of the Moon is Illuminated

Today's Extremes

State Highs State Lows

Community

WunderPhotos

Upload Photos

1,962,540 photos uploaded!

WunderBlog® & News

Nearby

Air Quality

  Air Quality AQ Index Pollutant
Not available.

Snow Depth

Station Depth Elevation

Earthquake Activity

City Distance Mag. Time & Date
Minimum magnitude displayed is 2.5.

Earthquake Activity

City Distance Mag. Time & Date
Minimum magnitude displayed is 2.5.

Coastal Water Temperatures

Place Temperature

Stations

Nearby Weather Stations

Station Location Temp. Windchill Dew Point Humidity Wind Precip. Elev Updated Type
                   

Watches & Warnings

There are currently no watches in effect.